Naples, Utah
Current Conditions -  °F | °C
As of 6:53 AM on Monday 26 Jan 2015 (Local Time) from KVEL Reporting Station
Clear Clear  
Wind Chill: 19°   Ceiling: Unl
Heat Index: 19°   Visibility: 10mi
Dew Point: 15°   Wind: 3mph
Humidity: 85%   Direction: 280°W
Pressure: 30.47"   Gusts: NA
Location:  40.1055°N, 109.498°W
Report Text: KVEL 261353Z AUTO 28003KT 10SM CLR M07/M09 A3047 RMK AO2 SLP358 T10721094
Loading
Personal Weather Stations






























Interactive Weather Map New forecast layout! Learn more

10-Day Weather Forecast

Advertisements
Track Severe Weather on mobile